Time;durP1;ratioP1;P1;durP2;ratioP2;P2;SDS_P1;SDS_P2;PMS_P1;PMS_P2;Temp;Humidity;BMP_temperature;BMP_pressure;BME280_temperature;BME280_humidity;BME280_pressure;Samples;Min_cycle;Max_cycle;Signal;HPM_P1;HPM_P2
2021/03/19 00:02:25;;;;;;;19.23;12.23;;;;;;;-0.29;86.61;95658.13;5055087;28;20517;-46
2021/03/19 00:04:53;;;;;;;21.85;12.13;;;;;;;-0.22;87.17;95659.72;5057381;28;20072;-45
2021/03/19 00:07:49;;;;;;;20.10;11.73;;;;;;;0.06;85.63;95664.38;5051397;28;20077;-48
2021/03/19 00:10:18;;;;;;;19.38;11.43;;;;;;;0.08;85.26;95667.56;5053027;28;20060;-45
2021/03/19 00:12:47;;;;;;;24.15;12.70;;;;;;;-0.09;85.80;95661.78;5056345;28;20339;-44
2021/03/19 00:15:16;;;;;;;20.17;11.95;;;;;;;-0.12;86.48;95659.69;5059778;28;20057;-46
2021/03/19 00:17:43;;;;;;;22.55;12.05;;;;;;;-0.32;86.74;95652.56;5067340;28;20540;-45
2021/03/19 00:20:25;;;;;;;19.00;12.02;;;;;;;-0.30;87.00;95653.84;5033047;28;20081;-45
2021/03/19 00:22:53;;;;;;;22.27;13.13;;;;;;;-0.20;86.85;95652.25;5048470;28;20056;-52
2021/03/19 00:25:20;;;;;;;21.50;11.57;;;;;;;-0.54;87.03;95655.50;5051152;28;20114;-52
2021/03/19 00:27:46;;;;;;;27.30;13.05;;;;;;;-0.70;87.87;95649.41;5067488;28;20048;-45
2021/03/19 00:30:13;;;;;;;21.80;12.90;;;;;;;-0.66;87.91;95650.47;5048767;28;20114;-47
2021/03/19 00:32:42;;;;;;;18.58;11.07;;;;;;;-0.71;87.45;95648.63;5053777;28;20124;-46
2021/03/19 00:35:11;;;;;;;22.95;12.38;;;;;;;-0.24;86.58;95649.34;5053494;28;20127;-47
2021/03/19 00:37:38;;;;;;;22.30;13.13;;;;;;;-0.32;86.51;95649.91;5051219;28;20052;-46
2021/03/19 00:40:10;;;;;;;20.80;13.23;;;;;;;-0.13;85.33;95648.25;5048955;28;20053;-50
2021/03/19 00:42:37;;;;;;;20.00;12.73;;;;;;;-0.37;86.32;95648.03;5049205;28;20057;-49
2021/03/19 00:45:06;;;;;;;20.92;13.25;;;;;;;-0.24;86.07;95644.81;5052038;28;20044;-46
2021/03/19 00:47:33;;;;;;;19.77;13.10;;;;;;;-0.03;85.33;95636.78;5047861;28;20136;-45
2021/03/19 00:50:01;;;;;;;21.05;13.35;;;;;;;-0.38;85.89;95635.81;5054310;28;20045;-49
2021/03/19 00:52:27;;;;;;;22.95;13.50;;;;;;;-0.34;85.98;95641.38;5055280;28;20042;-45
2021/03/19 00:54:54;;;;;;;21.95;13.95;;;;;;;-0.12;85.38;95639.19;5064246;28;20048;-49
2021/03/19 00:57:20;;;;;;;21.55;13.65;;;;;;;-0.32;86.27;95640.06;5059687;28;20421;-46
2021/03/19 00:59:47;;;;;;;21.95;13.50;;;;;;;-0.09;85.68;95641.31;5042149;28;20057;-45
2021/03/19 01:02:13;;;;;;;23.58;14.77;;;;;;;-0.17;86.23;95641.06;5033280;28;20061;-46
2021/03/19 01:04:40;;;;;;;22.48;13.68;;;;;;;-0.22;86.04;95633.13;5033243;28;20417;-46
2021/03/19 01:07:07;;;;;;;24.65;15.02;;;;;;;-0.09;85.41;95630.69;5032620;28;20107;-45
2021/03/19 01:09:33;;;;;;;28.65;15.13;;;;;;;-0.48;87.20;95627.88;5048578;28;20105;-46
2021/03/19 01:11:59;;;;;;;24.48;14.75;;;;;;;-0.45;87.37;95627.34;5071295;28;20534;-46
2021/03/19 01:14:26;;;;;;;22.80;14.38;;;;;;;-0.38;87.34;95627.06;5072466;28;20061;-47
2021/03/19 01:16:53;;;;;;;25.70;14.40;;;;;;;-0.64;88.08;95626.31;5066712;28;20506;-45
2021/03/19 01:19:20;;;;;;;25.27;15.15;;;;;;;-0.39;87.57;95626.25;5032318;28;20083;-45
2021/03/19 01:21:47;;;;;;;24.15;14.48;;;;;;;-0.14;86.09;95617.38;5053996;28;20060;-49
2021/03/19 01:24:13;;;;;;;26.48;15.48;;;;;;;-0.12;85.59;95619.78;5072010;28;20056;-47
2021/03/19 01:26:40;;;;;;;24.90;14.63;;;;;;;-0.53;86.78;95611.94;5060833;28;20144;-46
2021/03/19 01:29:07;;;;;;;23.27;14.82;;;;;;;-0.39;86.59;95614.81;5043153;28;20095;-46
2021/03/19 01:31:33;;;;;;;27.73;14.18;;;;;;;-0.70;87.42;95604.25;5045257;28;20080;-46
2021/03/19 01:34:00;;;;;;;23.70;14.15;;;;;;;-0.67;87.62;95602.94;5071742;28;20152;-45
2021/03/19 01:36:32;;;;;;;25.92;14.43;;;;;;;-0.85;88.14;95599.75;5063628;28;20088;-46
2021/03/19 01:38:59;;;;;;;25.45;14.43;;;;;;;-0.78;87.84;95602.94;5051747;28;20055;-47
2021/03/19 01:41:25;;;;;;;28.45;16.27;;;;;;;-0.74;88.19;95598.69;5057489;28;20060;-51
2021/03/19 01:44:17;;;;;;;29.92;16.65;;;;;;;-0.47;86.98;95594.91;5069177;28;20064;-46
2021/03/19 01:47:22;;;;;;;26.80;15.20;;;;;;;-0.53;87.13;95596.78;5046602;28;20528;-47
2021/03/19 01:50:29;;;;;;;26.85;14.50;;;;;;;-0.57;87.13;95589.63;5070100;28;20048;-46
2021/03/19 01:53:33;;;;;;;24.55;13.82;;;;;;;-0.48;87.12;95595.97;5066432;28;20048;-49
2021/03/19 01:56:37;;;;;;;22.35;14.18;;;;;;;-0.60;86.44;95595.47;5068754;28;20582;-44
2021/03/19 01:59:41;;;;;;;25.60;14.75;;;;;;;-0.48;86.88;95590.66;5049466;28;20053;-47
2021/03/19 02:02:45;;;;;;;27.50;14.77;;;;;;;-0.54;87.15;95594.41;5050761;28;20417;-45
2021/03/19 02:05:50;;;;;;;25.13;13.23;;;;;;;-0.61;86.41;95585.91;5071453;28;20106;-49
2021/03/19 02:08:35;;;;;;;;;;;;;;;-0.76;86.95;95584.88;5070071;28;20394;-49
2021/03/19 02:11:39;;;;;;;44.83;15.18;;;;;;;-0.59;87.04;95586.44;5051386;28;19921;-46
2021/03/19 02:14:24;;;;;;;;;;;;;;;-0.20;85.90;95591.09;5050281;28;20413;-44
2021/03/19 02:17:28;;;;;;;24.20;13.23;;;;;;;-0.39;85.58;95588.22;5052831;28;20286;-45
2021/03/19 02:20:32;;;;;;;21.55;12.32;;;;;;;-0.56;85.43;95581.38;5031028;28;20061;-48
2021/03/19 02:23:36;;;;;;;19.23;12.15;;;;;;;-0.61;84.25;95588.56;5038947;28;20051;-45
2021/03/19 02:26:40;;;;;;;21.27;12.35;;;;;;;-0.68;85.29;95583.53;5071168;28;20405;-46
2021/03/19 02:29:25;;;;;;;;;;;;;;;-0.30;84.16;95583.94;5037344;28;20045;-45
2021/03/19 02:32:01;;;;;;;20.48;12.32;;;;;;;-0.20;83.56;95583.13;5031217;28;20243;-45
2021/03/19 02:34:44;;;;;;;25.75;13.80;;;;;;;-0.08;82.96;95580.94;5045737;28;20064;-49
2021/03/19 02:37:18;;;;;;;22.75;13.02;;;;;;;-0.45;84.27;95589.34;5031157;28;20080;-46
2021/03/19 02:39:44;;;;;;;;;;;;;;;-0.65;84.50;95582.19;5031238;28;20103;-46
2021/03/19 02:42:13;;;;;;;22.60;12.13;;;;;;;-0.45;84.50;95584.03;5031089;28;20458;-45
2021/03/19 02:44:41;;;;;;;22.45;13.18;;;;;;;-0.27;83.39;95578.88;5058808;28;20055;-48
2021/03/19 02:47:09;;;;;;;21.80;13.27;;;;;;;-0.10;82.89;95583.06;5038844;28;20049;-44
2021/03/19 02:49:36;;;;;;;21.60;13.07;;;;;;;-0.38;83.68;95585.31;5060653;28;20412;-47
2021/03/19 02:52:22;;;;;;;24.08;12.95;;;;;;;-0.29;83.01;95581.03;5032483;28;20061;-46
2021/03/19 02:55:00;;;;;;;21.75;12.18;;;;;;;-0.55;83.15;95582.19;5049441;28;20060;-46
2021/03/19 02:57:26;;;;;;;21.23;12.82;;;;;;;-0.50;83.62;95580.28;5050853;28;20056;-46
2021/03/19 02:59:54;;;;;;;22.13;12.85;;;;;;;-0.38;83.67;95582.66;5040424;28;20107;-48
2021/03/19 03:02:21;;;;;;;21.20;12.55;;;;;;;-0.60;84.01;95574.22;5031848;28;20124;-46
2021/03/19 03:04:47;;;;;;;23.13;14.25;;;;;;;-0.71;85.19;95576.91;5070552;28;20542;-47
2021/03/19 03:07:25;;;;;;;20.77;12.52;;;;;;;-0.63;84.93;95580.06;5055612;28;20115;-46
2021/03/19 03:09:52;;;;;;;22.95;13.55;;;;;;;-0.42;84.65;95584.28;5068872;28;20052;-47
2021/03/19 03:12:19;;;;;;;23.00;12.38;;;;;;;-0.52;83.95;95581.63;5058858;28;20080;-47
2021/03/19 03:14:47;;;;;;;22.33;12.80;;;;;;;-0.54;84.48;95578.44;5070330;28;20472;-47
2021/03/19 03:17:14;;;;;;;25.08;13.43;;;;;;;-0.50;84.19;95584.81;5037818;28;20053;-45
2021/03/19 03:19:41;;;;;;;21.23;12.45;;;;;;;-0.69;84.09;95576.63;5049505;28;20072;-45
2021/03/19 03:22:09;;;;;;;22.02;12.85;;;;;;;-0.67;84.16;95579.81;5036377;28;20061;-47
2021/03/19 03:24:36;;;;;;;21.77;12.02;;;;;;;-0.77;83.84;95577.97;5034349;28;20053;-47
2021/03/19 03:27:03;;;;;;;23.77;11.70;;;;;;;-0.88;83.47;95584.34;5034368;28;20060;-45
2021/03/19 03:29:30;;;;;;;22.38;12.55;;;;;;;-0.84;84.05;95580.13;5043366;28;20414;-47
2021/03/19 03:31:57;;;;;;;27.80;14.18;;;;;;;-0.86;83.65;95584.88;5053969;28;20053;-47
2021/03/19 03:34:24;;;;;;;21.02;13.90;;;;;;;-0.52;83.35;95577.13;5052341;28;20473;-45
2021/03/19 03:36:51;;;;;;;22.63;12.75;;;;;;;-0.47;82.58;95579.75;5053690;28;20052;-46
2021/03/19 03:39:31;;;;;;;23.42;12.85;;;;;;;-0.71;83.20;95568.13;5053507;28;20052;-48
2021/03/19 03:42:02;;;;;;;21.27;12.65;;;;;;;-0.46;82.82;95564.59;5074471;28;20053;-49
2021/03/19 03:44:29;;;;;;;22.83;12.95;;;;;;;-0.36;82.29;95563.75;5068670;28;20059;-45
2021/03/19 03:46:56;;;;;;;22.02;12.45;;;;;;;-0.35;82.44;95560.84;5034077;28;20058;-49
2021/03/19 03:49:24;;;;;;;23.75;13.27;;;;;;;-0.30;81.35;95560.81;5059255;28;20052;-47
2021/03/19 03:51:51;;;;;;;22.08;12.10;;;;;;;-0.40;81.13;95566.16;5042094;28;20049;-46
2021/03/19 03:54:19;;;;;;;21.52;12.18;;;;;;;-0.27;81.38;95564.78;5052415;28;20059;-45
2021/03/19 03:56:47;;;;;;;21.23;12.30;;;;;;;-0.29;81.21;95561.63;5074136;28;20060;-46
2021/03/19 03:59:13;;;;;;;21.40;12.15;;;;;;;-0.19;80.85;95566.91;5069535;28;20090;-44
2021/03/19 04:01:40;;;;;;;22.67;12.82;;;;;;;0.03;80.13;95563.84;5033507;28;20441;-44
2021/03/19 04:04:11;;;;;;;21.27;12.05;;;;;;;-0.57;81.69;95568.38;5048901;28;20109;-44
2021/03/19 04:06:38;;;;;;;20.20;11.57;;;;;;;-0.54;82.14;95568.63;5051802;28;20096;-48
2021/03/19 04:09:05;;;;;;;20.02;11.32;;;;;;;-0.56;81.43;95564.63;5038967;28;20046;-48
2021/03/19 04:11:31;;;;;;;20.38;11.25;;;;;;;-0.53;81.79;95570.19;5033187;28;20041;-49
2021/03/19 04:13:59;;;;;;;20.10;11.82;;;;;;;-0.57;81.63;95560.38;5052643;28;20045;-44
2021/03/19 04:16:26;;;;;;;20.35;11.35;;;;;;;-0.76;81.95;95558.31;5051813;28;20049;-46
2021/03/19 04:18:54;;;;;;;20.42;11.32;;;;;;;-0.65;82.19;95560.94;5044962;28;20044;-48
2021/03/19 04:21:21;;;;;;;21.00;11.88;;;;;;;-0.65;82.20;95559.09;5049536;28;20049;-46
2021/03/19 04:23:48;;;;;;;22.75;12.25;;;;;;;-0.39;81.67;95566.97;5043298;28;20075;-46
2021/03/19 04:26:21;;;;;;;20.85;11.90;;;;;;;-0.25;80.58;95570.66;5073254;28;20052;-46
2021/03/19 04:28:48;;;;;;;19.92;11.80;;;;;;;-0.20;80.11;95564.50;5056168;28;20065;-45
2021/03/19 04:31:14;;;;;;;22.40;12.68;;;;;;;-0.49;81.76;95570.44;5032996;28;20053;-45
2021/03/19 04:33:41;;;;;;;20.70;11.98;;;;;;;-0.40;81.52;95574.16;5036411;28;20182;-43
2021/03/19 04:36:23;;;;;;;22.02;12.45;;;;;;;-0.29;81.38;95565.09;5053585;28;20123;-46
2021/03/19 04:38:51;;;;;;;22.35;12.38;;;;;;;-0.28;81.65;95576.50;5042939;28;20490;-44
2021/03/19 04:41:18;;;;;;;22.60;11.85;;;;;;;-0.13;80.98;95572.97;5072861;28;20056;-45
2021/03/19 04:43:45;;;;;;;19.98;11.65;;;;;;;-0.09;80.51;95580.16;5052184;28;20052;-46
2021/03/19 04:46:11;;;;;;;21.05;12.27;;;;;;;0.01;79.78;95578.53;5044619;28;20037;-45
2021/03/19 04:48:38;;;;;;;21.35;12.50;;;;;;;-0.15;79.82;95567.16;5067443;28;20113;-50
2021/03/19 04:51:05;;;;;;;21.30;12.05;;;;;;;-0.14;79.79;95580.16;5036069;28;20459;-47
2021/03/19 04:53:46;;;;;;;21.73;11.73;;;;;;;-0.66;81.98;95580.59;5051724;28;20053;-45
2021/03/19 04:56:12;;;;;;;22.20;12.13;;;;;;;-0.71;82.00;95582.22;5052358;28;20045;-46
2021/03/19 04:58:39;;;;;;;24.45;12.05;;;;;;;-0.40;81.79;95579.47;5049640;28;20127;-44
2021/03/19 05:01:05;;;;;;;22.10;11.95;;;;;;;-0.58;82.04;95578.19;5052143;28;20052;-45
2021/03/19 05:03:33;;;;;;;20.98;11.75;;;;;;;-0.45;81.17;95582.16;5051807;28;20128;-46
2021/03/19 05:05:59;;;;;;;19.92;10.73;;;;;;;-0.39;81.19;95581.06;5051447;28;20076;-46
2021/03/19 05:08:26;;;;;;;20.08;10.15;;;;;;;-0.92;81.68;95578.00;5042318;28;20049;-43
2021/03/19 05:10:53;;;;;;;18.63;11.20;;;;;;;-0.85;82.85;95577.72;5052131;28;20052;-45
2021/03/19 05:13:20;;;;;;;19.17;10.95;;;;;;;-0.96;82.44;95579.59;5052113;28;20439;-46
2021/03/19 05:15:47;;;;;;;21.63;11.18;;;;;;;-1.00;82.43;95586.50;5052499;28;20060;-47
2021/03/19 05:18:13;;;;;;;23.70;11.45;;;;;;;-0.94;82.85;95580.13;5056680;28;20041;-44
2021/03/19 05:20:40;;;;;;;22.98;11.57;;;;;;;-1.01;82.77;95584.91;5057687;28;20415;-48
2021/03/19 05:23:19;;;;;;;19.63;11.48;;;;;;;-0.99;82.67;95588.88;5032461;28;20049;-48
2021/03/19 05:25:47;;;;;;;21.65;11.30;;;;;;;-0.90;82.23;95588.34;5039831;28;20060;-46
2021/03/19 05:28:14;;;;;;;20.73;11.60;;;;;;;-0.83;81.83;95587.00;5065416;28;20060;-44
2021/03/19 05:30:41;;;;;;;22.13;11.15;;;;;;;-0.98;82.49;95595.78;5047298;28;20045;-48
2021/03/19 05:33:08;;;;;;;22.60;11.90;;;;;;;-1.01;82.64;95599.00;5032094;28;20368;-48
2021/03/19 05:35:35;;;;;;;20.23;11.40;;;;;;;-0.89;82.41;95592.59;5043750;28;20110;-48
2021/03/19 05:38:03;;;;;;;19.92;11.85;;;;;;;-0.94;82.43;95596.06;5071670;28;20048;-48
2021/03/19 05:40:37;;;;;;;17.60;10.18;;;;;;;-0.71;81.90;95600.03;5050821;28;20052;-46
2021/03/19 05:43:23;;;;;;;20.13;11.10;;;;;;;-0.79;82.34;95597.88;5071908;28;20059;-47
2021/03/19 05:46:10;;;;;;;21.33;10.63;;;;;;;-0.58;82.14;95593.34;5058385;28;20057;-48
2021/03/19 05:48:58;;;;;;;22.63;11.43;;;;;;;-0.69;81.57;95599.75;5031263;28;20437;-44
2021/03/19 05:51:32;;;;;;;21.35;11.60;;;;;;;-0.43;81.39;95593.28;5039061;28;20061;-48
2021/03/19 05:54:14;;;;;;;20.35;11.48;;;;;;;-0.25;80.67;95600.69;5031631;28;20054;-45
2021/03/19 05:56:42;;;;;;;22.45;12.23;;;;;;;-0.53;81.56;95595.97;5068510;28;20491;-49
2021/03/19 05:59:08;;;;;;;21.95;12.32;;;;;;;-0.68;82.33;95601.31;5049228;28;20079;-47
2021/03/19 06:01:37;;;;;;;20.30;11.88;;;;;;;-0.66;82.44;95604.50;5048682;28;20114;-49
2021/03/19 06:04:05;;;;;;;20.23;12.07;;;;;;;-0.66;82.31;95602.66;5063563;28;20049;-45
2021/03/19 06:07:05;;;;;;;21.13;11.38;;;;;;;-0.57;81.58;95610.88;5071551;28;20061;-47
2021/03/19 06:09:41;;;;;;;21.50;11.38;;;;;;;-0.62;81.54;95613.53;5044030;28;20109;-47
2021/03/19 06:12:15;;;;;;;21.02;11.57;;;;;;;-0.65;81.44;95611.41;5059633;22;20053;-44
2021/03/19 06:14:58;;;;;;;22.33;11.10;;;;;;;-0.45;81.11;95618.56;5031066;28;20395;-49
2021/03/19 06:17:33;;;;;;;22.33;11.32;;;;;;;-0.63;80.44;95617.25;5018080;28;20124;-45
2021/03/19 06:20:03;;;;;;;19.42;11.00;;;;;;;-0.71;80.84;95619.41;5035221;28;20067;-43
2021/03/19 06:22:49;;;;;;;18.33;10.80;;;;;;;-0.88;81.47;95613.56;5023292;28;20410;-45
2021/03/19 06:25:21;;;;;;;20.80;11.68;;;;;;;-0.80;81.47;95621.00;5026079;28;20710;-46
2021/03/19 06:27:56;;;;;;;22.27;11.90;;;;;;;-0.62;80.60;95630.25;5018162;28;20704;-44
2021/03/19 06:30:30;;;;;;;21.92;10.73;;;;;;;-0.57;80.80;95613.53;5019801;28;20068;-44
2021/03/19 06:33:23;;;;;;;18.88;10.32;;;;;;;-0.59;79.91;95624.41;5027666;28;20057;-45
2021/03/19 06:36:10;;;;;;;19.77;10.90;;;;;;;-0.66;79.85;95617.78;5028978;28;20057;-48
2021/03/19 06:39:02;;;;;;;20.70;10.50;;;;;;;-0.52;79.93;95624.13;5019007;28;20293;-44
2021/03/19 06:41:30;;;;;;;19.90;11.40;;;;;;;-0.49;79.71;95615.63;5028647;28;20061;-42
2021/03/19 06:44:20;;;;;;;22.38;11.13;;;;;;;-0.54;79.33;95613.00;5028528;28;20049;-45
2021/03/19 06:46:58;;;;;;;18.83;10.43;;;;;;;-0.56;79.30;95613.25;5030479;28;20045;-46
2021/03/19 06:49:27;;;;;;;23.05;11.50;;;;;;;-0.27;78.90;95616.09;5024738;28;20077;-47
2021/03/19 06:52:13;;;;;;;20.70;10.65;;;;;;;-0.41;79.75;95615.09;5023492;28;20053;-44
2021/03/19 06:55:27;;;;;;;20.50;11.65;;;;;;;-0.31;79.31;95614.25;5029875;28;20067;-43
2021/03/19 06:57:54;;;;;;;;;;;;;;;-0.03;78.43;95616.28;5010643;28;20045;-45
2021/03/19 07:00:49;;;;;;;20.30;10.65;;;;;;;-0.04;77.90;95627.97;5030060;28;19963;-44
2021/03/19 07:03:49;;;;;;;22.90;12.93;;;;;;;0.42;75.79;95632.28;5015145;28;20458;-44
2021/03/19 07:06:53;;;;;;;19.15;11.25;;;;;;;0.40;75.67;95632.56;5022227;28;20128;-43
2021/03/19 07:09:38;;;;;;;17.23;10.27;;;;;;;0.14;75.88;95626.59;5025163;28;20597;-44
2021/03/19 07:12:37;;;;;;;19.50;11.40;;;;;;;0.24;76.30;95631.06;5029689;28;20061;-45
2021/03/19 07:15:28;;;;;;;17.52;10.75;;;;;;;0.60;76.14;95634.31;4992610;28;20535;-45
2021/03/19 07:18:12;;;;;;;20.15;10.90;;;;;;;0.28;75.58;95633.97;5012116;28;20567;-47
2021/03/19 07:20:47;;;;;;;;;;;;;;;0.47;77.07;95637.59;5024672;28;20491;-45
2021/03/19 07:23:35;;;;;;;19.83;11.32;;;;;;;0.37;76.87;95641.09;5014352;28;19921;-48
2021/03/19 07:26:13;;;;;;;21.98;11.73;;;;;;;0.62;75.90;95642.06;5028052;28;20056;-43
2021/03/19 07:29:04;;;;;;;21.80;12.48;;;;;;;0.42;76.70;95637.63;5029978;28;20092;-44
2021/03/19 07:31:51;;;;;;;20.15;12.13;;;;;;;0.47;77.60;95650.91;5010309;28;20077;-46
2021/03/19 07:34:47;;;;;;;21.17;11.57;;;;;;;0.61;76.87;95648.41;5028468;28;20049;-47
2021/03/19 07:37:42;;;;;;;21.15;11.63;;;;;;;0.33;77.33;95644.59;5029678;28;20073;-45
2021/03/19 07:40:48;;;;;;;19.63;11.35;;;;;;;0.26;77.23;95641.44;5010337;28;20069;-46
2021/03/19 07:43:37;;;;;;;20.63;11.82;;;;;;;0.32;76.81;95645.66;5021838;28;20099;-45
2021/03/19 07:46:40;;;;;;;22.60;13.07;;;;;;;-0.04;77.48;95653.78;5022879;28;20065;-43
2021/03/19 07:49:31;;;;;;;22.10;12.32;;;;;;;-0.40;79.39;95650.44;5027645;28;20057;-46
2021/03/19 07:52:35;;;;;;;23.85;13.55;;;;;;;0.19;79.27;95647.84;5016979;28;20112;-45
2021/03/19 07:55:10;;;;;;;21.65;12.32;;;;;;;0.13;78.47;95658.78;5014359;28;20057;-44
2021/03/19 07:57:48;;;;;;;24.13;12.70;;;;;;;0.07;79.19;95642.06;5017440;28;20050;-45
2021/03/19 08:00:20;;;;;;;23.30;12.68;;;;;;;0.25;79.81;95643.28;5026939;28;20391;-44
2021/03/19 08:02:53;;;;;;;23.45;13.55;;;;;;;0.40;77.80;95648.53;5026962;28;20053;-45
2021/03/19 08:05:23;;;;;;;;;;;;;;;0.18;78.33;95656.91;5032280;28;20136;-45
2021/03/19 08:08:20;;;;;;;21.92;12.75;;;;;;;0.52;77.12;95650.06;5025289;28;20293;-45
2021/03/19 08:11:13;;;;;;;22.35;12.68;;;;;;;0.54;77.57;95656.72;5030652;28;20058;-44
2021/03/19 08:13:40;;;;;;;25.20;15.48;;;;;;;0.44;77.29;95656.78;5021935;28;20140;-45
2021/03/19 08:16:29;;;;;;;25.48;14.13;;;;;;;0.55;77.82;95652.97;5031250;28;20050;-47
2021/03/19 08:19:15;;;;;;;23.95;14.18;;;;;;;0.82;77.18;95663.22;5032602;28;20100;-47
2021/03/19 08:21:56;;;;;;;23.42;13.25;;;;;;;0.81;75.73;95661.59;5021075;28;20648;-46
2021/03/19 08:24:41;;;;;;;20.48;13.63;;;;;;;1.03;75.03;95650.53;5033092;28;20056;-45
2021/03/19 08:27:12;;;;;;;23.42;13.85;;;;;;;0.79;76.20;95661.09;5033585;28;20061;-45
2021/03/19 08:29:51;;;;;;;22.00;12.75;;;;;;;0.51;76.78;95662.59;5033473;28;20052;-44
2021/03/19 08:32:35;;;;;;;21.42;12.88;;;;;;;0.80;76.04;95672.53;5032692;28;20419;-46
2021/03/19 08:35:16;;;;;;;21.65;12.90;;;;;;;0.88;75.22;95672.75;5033679;28;20088;-45
2021/03/19 08:38:10;;;;;;;21.17;12.68;;;;;;;0.99;75.48;95672.69;5028173;28;20522;-46
2021/03/19 08:40:55;;;;;;;21.90;13.77;;;;;;;0.60;76.00;95673.47;5012642;28;20427;-46
2021/03/19 08:43:28;;;;;;;24.85;13.65;;;;;;;0.47;77.93;95678.31;5028056;28;20049;-46
2021/03/19 08:46:35;;;;;;;21.88;13.13;;;;;;;0.59;77.72;95678.00;5025204;28;20064;-46
2021/03/19 08:49:14;;;;;;;23.30;13.40;;;;;;;0.43;77.45;95679.94;5025207;28;20050;-49
2021/03/19 08:51:44;;;;;;;21.88;13.05;;;;;;;0.70;77.92;95687.50;5031955;28;20127;-45
2021/03/19 08:54:15;;;;;;;23.73;13.55;;;;;;;0.82;77.46;95687.19;5032105;28;20056;-44
2021/03/19 08:57:03;;;;;;;21.90;13.43;;;;;;;1.05;76.17;95684.91;5033348;28;20056;-44
2021/03/19 08:59:36;;;;;;;23.95;15.25;;;;;;;1.02;75.88;95683.59;5028517;28;20069;-45
2021/03/19 09:02:18;;;;;;;19.20;12.10;;;;;;;0.38;77.91;95690.59;5012871;28;20056;-45
2021/03/19 09:05:00;;;;;;;22.13;13.23;;;;;;;0.42;78.14;95691.66;5027115;28;20058;-46
2021/03/19 09:07:30;;;;;;;26.90;14.52;;;;;;;0.99;76.75;95692.13;5032711;28;20437;-46
2021/03/19 09:10:17;;;;;;;22.98;13.18;;;;;;;0.59;77.91;95691.31;5024908;28;20041;-43
2021/03/19 09:12:56;;;;;;;26.50;13.60;;;;;;;0.33;79.91;95692.50;5001722;28;20491;-44
2021/03/19 09:15:23;;;;;;;25.27;14.15;;;;;;;0.68;79.17;95688.84;5031560;28;20045;-45
2021/03/19 09:18:31;;;;;;;23.02;14.35;;;;;;;0.85;77.67;95691.97;5015264;28;20053;-44
2021/03/19 09:21:00;;;;;;;23.33;14.75;;;;;;;1.03;78.85;95695.81;4998430;28;20057;-45
2021/03/19 09:23:52;;;;;;;28.38;15.05;;;;;;;1.09;77.63;95694.72;5037199;28;20494;-48
2021/03/19 09:26:50;;;;;;;23.27;14.65;;;;;;;0.82;76.84;95694.38;5029470;28;20052;-48
2021/03/19 09:29:19;;;;;;;23.23;13.50;;;;;;;1.04;77.09;95710.75;5031012;28;20124;-46
2021/03/19 09:31:49;;;;;;;22.35;14.15;;;;;;;1.51;76.25;95696.00;5032234;28;20155;-46
2021/03/19 09:34:16;;;;;;;26.50;15.75;;;;;;;1.84;75.32;95699.69;5031832;28;20453;-44
2021/03/19 09:36:58;;;;;;;22.27;15.02;;;;;;;1.67;75.56;95699.31;5029755;28;20068;-47
2021/03/19 09:40:00;;;;;;;24.80;15.38;;;;;;;1.48;75.90;95701.88;5022707;28;20046;-46
2021/03/19 09:42:28;;;;;;;29.08;15.48;;;;;;;1.34;77.53;95695.63;5030877;28;20417;-45
2021/03/19 09:45:01;;;;;;;27.67;16.58;;;;;;;1.19;76.41;95709.03;5013318;28;20121;-47
2021/03/19 09:47:47;;;;;;;26.52;16.83;;;;;;;1.14;77.79;95705.34;5013214;28;20053;-46
2021/03/19 09:50:22;;;;;;;26.60;15.82;;;;;;;0.88;79.62;95699.41;5015018;28;20453;-45
2021/03/19 09:53:06;;;;;;;30.67;16.83;;;;;;;1.34;78.29;95692.94;5025164;28;20429;-46
2021/03/19 09:55:36;;;;;;;28.42;17.40;;;;;;;1.55;78.58;95697.00;5025487;28;20128;-44
2021/03/19 09:58:17;;;;;;;23.85;15.30;;;;;;;1.46;75.21;95697.91;5027294;28;20077;-44
2021/03/19 10:01:00;;;;;;;28.52;17.17;;;;;;;1.41;77.91;95701.41;5024988;28;20396;-46
2021/03/19 10:03:27;;;;;;;22.02;14.30;;;;;;;1.01;79.13;95700.66;5022829;28;20132;-44
2021/03/19 10:05:54;;;;;;;24.15;15.40;;;;;;;1.16;79.18;95700.53;5025968;28;20049;-46
2021/03/19 10:08:29;;;;;;;23.63;14.65;;;;;;;1.25;78.98;95697.28;5026071;28;20049;-44
2021/03/19 10:11:05;;;;;;;22.42;13.18;;;;;;;1.43;77.39;95701.94;5026910;28;20056;-44
2021/03/19 10:13:35;;;;;;;18.85;11.52;;;;;;;1.08;77.15;95708.34;5023589;28;20053;-45
2021/03/19 10:16:04;;;;;;;21.27;12.88;;;;;;;0.98;78.37;95706.53;5022431;28;20141;-44
2021/03/19 10:18:46;;;;;;;21.80;13.85;;;;;;;1.46;78.35;95704.03;5027599;28;20053;-44
2021/03/19 10:21:22;;;;;;;22.50;13.15;;;;;;;1.25;77.62;95700.72;5024931;28;20140;-44
2021/03/19 10:24:02;;;;;;;20.40;13.82;;;;;;;1.54;76.10;95698.09;5026470;28;20062;-46
2021/03/19 10:26:50;;;;;;;23.25;14.98;;;;;;;1.42;77.44;95700.34;5027222;28;20047;-44
2021/03/19 10:29:23;;;;;;;24.20;14.80;;;;;;;1.22;77.45;95703.97;5026120;28;20057;-46
2021/03/19 10:31:52;;;;;;;23.88;14.55;;;;;;;1.13;78.34;95701.06;5028175;28;20049;-50
2021/03/19 10:34:28;;;;;;;22.48;14.02;;;;;;;1.30;79.71;95697.22;5026652;28;20057;-44
2021/03/19 10:36:54;;;;;;;21.92;14.15;;;;;;;1.92;77.34;95692.13;5024273;28;20049;-46
2021/03/19 10:39:33;;;;;;;19.63;11.65;;;;;;;1.45;75.45;95694.44;5025000;28;20517;-47
2021/03/19 10:42:20;;;;;;;20.92;12.13;;;;;;;1.44;74.62;95700.84;5025249;28;20085;-45
2021/03/19 10:45:02;;;;;;;21.02;13.07;;;;;;;2.12;74.71;95697.28;5013978;28;20502;-48
2021/03/19 10:47:51;;;;;;;18.15;11.93;;;;;;;1.88;72.64;95699.91;5023302;28;20100;-44
2021/03/19 10:50:32;;;;;;;16.33;10.55;;;;;;;1.98;72.25;95699.81;5026653;28;20054;-45
2021/03/19 10:53:12;;;;;;;20.03;10.77;;;;;;;1.68;71.65;95695.56;5015777;28;20076;-46
2021/03/19 10:55:42;;;;;;;19.08;11.07;;;;;;;1.96;73.93;95695.84;5024909;28;20133;-47
2021/03/19 10:58:22;;;;;;;16.85;10.85;;;;;;;1.58;72.58;95704.47;5023303;28;20372;-44
2021/03/19 11:00:50;;;;;;;18.35;12.48;;;;;;;2.15;72.17;95701.25;5023174;28;20049;-45
2021/03/19 11:03:32;;;;;;;17.05;12.15;;;;;;;2.65;71.46;95701.72;5023793;28;20049;-45
2021/03/19 11:06:08;;;;;;;17.90;12.70;;;;;;;2.74;70.21;95698.13;5025324;28;20392;-45
2021/03/19 11:08:36;;;;;;;19.30;12.73;;;;;;;2.67;71.57;95704.91;5025530;28;20042;-50
2021/03/19 11:11:03;;;;;;;19.48;13.13;;;;;;;2.53;71.64;95702.91;5026816;28;20123;-45
2021/03/19 11:13:33;;;;;;;20.40;13.27;;;;;;;2.74;72.41;95710.69;5030915;28;20728;-47
2021/03/19 11:16:24;;;;;;;20.08;13.10;;;;;;;2.62;71.57;95700.41;5023328;28;20144;-44
2021/03/19 11:19:04;;;;;;;19.13;11.30;;;;;;;1.76;72.02;95700.31;5025626;28;20103;-46
2021/03/19 11:21:31;;;;;;;20.30;13.18;;;;;;;2.32;72.54;95698.91;5022812;28;20104;-47
2021/03/19 11:24:21;;;;;;;18.38;11.75;;;;;;;1.66;71.83;95691.59;5024835;28;20068;-45
2021/03/19 11:27:01;;;;;;;20.95;13.13;;;;;;;2.10;71.17;95692.19;5032405;28;20065;-45
2021/03/19 11:29:34;;;;;;;21.63;13.40;;;;;;;2.44;70.49;95693.97;5018904;28;20046;-45
2021/03/19 11:32:13;;;;;;;;;;;;;;;2.45;70.14;95687.53;5033633;28;20120;-44
2021/03/19 11:34:47;;;;;;;17.77;11.68;;;;;;;2.12;69.42;95689.25;5035305;28;19976;-45
2021/03/19 11:37:20;;;;;;;17.15;10.32;;;;;;;2.15;68.50;95687.91;5019485;28;20133;-47
2021/03/19 11:39:49;;;;;;;16.92;11.80;;;;;;;2.90;68.09;95692.56;5014677;28;20054;-45
2021/03/19 11:42:18;;;;;;;15.10;10.65;;;;;;;3.56;63.39;95682.72;5014556;28;20053;-47
2021/03/19 11:44:47;;;;;;;13.85;9.02;;;;;;;3.25;61.62;95685.88;5014417;28;20439;-48
2021/03/19 11:47:34;;;;;;;14.52;10.40;;;;;;;3.53;62.14;95678.75;5029919;28;20611;-44
2021/03/19 11:50:20;;;;;;;19.52;12.73;;;;;;;3.85;62.21;95685.97;5014374;28;20073;-46
2021/03/19 11:52:48;;;;;;;18.60;12.00;;;;;;;3.85;64.04;95683.28;5014759;28;20053;-47
2021/03/19 11:55:19;;;;;;;16.48;11.65;;;;;;;5.07;63.32;95682.72;5014398;28;20057;-46
2021/03/19 11:57:45;;;;;;;18.73;12.27;;;;;;;4.69;60.92;95684.88;5014976;28;20426;-44
2021/03/19 12:00:21;;;;;;;17.58;12.05;;;;;;;4.20;62.78;95681.03;5014311;28;20049;-47
2021/03/19 12:02:50;;;;;;;16.17;11.18;;;;;;;3.16;63.04;95675.06;5014819;28;20112;-47
2021/03/19 12:05:20;;;;;;;15.75;11.48;;;;;;;2.62;66.58;95681.69;5014389;28;20058;-47